createdAt,value
2017-08-18T15:59:43.485Z,97662.47
2017-08-18T16:02:11.870Z,97664.52
2017-08-18T16:04:41.014Z,97670.13
2017-08-18T16:07:09.430Z,97668.27
2017-08-18T16:09:37.817Z,97662.10
2017-08-18T16:12:06.192Z,97659.50
2017-08-18T16:14:34.572Z,97658.00
2017-08-18T16:17:02.950Z,97650.91
2017-08-18T16:19:31.321Z,97640.83
2017-08-18T16:21:59.731Z,97641.56
2017-08-18T16:24:28.878Z,97648.11
2017-08-18T16:26:57.292Z,97649.28
2017-08-18T16:29:25.664Z,97657.14
2017-08-18T16:31:54.055Z,97663.09
2017-08-18T16:34:22.427Z,97666.92
2017-08-18T16:36:50.818Z,97670.88
2017-08-18T16:39:19.198Z,97664.38
2017-08-18T16:41:47.575Z,97660.67
2017-08-18T16:44:15.985Z,97655.83
2017-08-18T16:46:45.113Z,97657.68
2017-08-18T16:49:13.481Z,97655.38
2017-08-18T16:51:41.897Z,97646.55
2017-08-18T16:54:10.271Z,97647.28
2017-08-18T16:56:38.637Z,97644.34
2017-08-18T16:59:07.084Z,97642.02
2017-08-18T17:01:35.467Z,97629.18
2017-08-18T17:04:03.879Z,97642.14
2017-08-18T17:06:32.279Z,97651.97
2017-08-18T17:09:00.676Z,97671.63
2017-08-18T17:11:29.065Z,97693.49
2017-08-18T17:13:57.500Z,97693.72
2017-08-18T17:16:25.891Z,97695.09
2017-08-18T17:18:54.284Z,97703.41
2017-08-18T17:21:22.694Z,97710.09
2017-08-18T17:23:51.088Z,97700.31
2017-08-18T17:26:19.487Z,97707.58
2017-08-18T17:28:47.877Z,97710.09
2017-08-18T17:31:16.292Z,97715.40
2017-08-18T17:33:44.681Z,97716.97
2017-08-18T17:36:13.079Z,97718.92
2017-08-18T17:38:41.459Z,97709.64
2017-08-18T17:41:09.837Z,97704.43
2017-08-18T17:43:38.242Z,97713.30
2017-08-18T17:46:06.633Z,97720.48
2017-08-18T17:48:35.001Z,97723.67
2017-08-18T17:51:03.405Z,97721.84
2017-08-18T17:53:32.544Z,97725.35
2017-08-18T17:56:00.919Z,97721.70
2017-08-18T17:58:30.152Z,97731.44
2017-08-18T18:00:58.525Z,97743.15
2017-08-18T18:03:26.888Z,97733.39
2017-08-18T18:05:55.288Z,97720.28
2017-08-18T18:08:23.668Z,97709.42
2017-08-18T18:10:52.039Z,97719.91
2017-08-18T18:13:20.436Z,97721.84
2017-08-18T18:15:48.806Z,97720.77
2017-08-18T18:18:17.177Z,97726.12
2017-08-18T18:20:45.576Z,97732.73
2017-08-18T18:23:13.941Z,97738.88
2017-08-18T18:25:42.310Z,97743.53
2017-08-18T18:28:10.737Z,97754.52
2017-08-18T18:30:39.115Z,97735.50
2017-08-18T18:33:07.536Z,97718.02
2017-08-18T18:35:35.916Z,97726.39
2017-08-18T18:38:04.299Z,97742.95
2017-08-18T18:40:32.711Z,97763.34
2017-08-18T18:43:01.099Z,97765.98
2017-08-18T18:45:29.476Z,97786.16
2017-08-18T18:47:57.869Z,97778.19
2017-08-18T18:50:26.248Z,97779.06
2017-08-18T18:52:54.624Z,97770.97
2017-08-18T18:55:23.020Z,97782.73
2017-08-18T18:57:51.404Z,97792.48
2017-08-18T19:00:19.781Z,97792.98
2017-08-18T19:02:48.187Z,97794.09
2017-08-18T19:05:16.557Z,97793.09
2017-08-18T19:07:44.921Z,97798.62
2017-08-18T19:10:13.331Z,97801.54
2017-08-18T19:12:41.721Z,97809.36
2017-08-18T19:15:10.089Z,97804.79
2017-08-18T19:17:38.478Z,97802.72
2017-08-18T19:20:06.861Z,97804.41
2017-08-18T19:22:35.224Z,97821.30
2017-08-18T19:25:03.618Z,97811.37
2017-08-18T19:27:31.986Z,97809.69
2017-08-18T19:30:00.368Z,97815.64
2017-08-18T19:32:29.563Z,97808.57
2017-08-18T19:34:57.929Z,97810.88
2017-08-18T19:37:26.322Z,97827.75
2017-08-18T19:39:54.729Z,97824.56
2017-08-18T19:42:23.109Z,97834.11
2017-08-18T19:44:51.475Z,97831.20
2017-08-18T19:47:20.643Z,97837.96
2017-08-18T19:49:49.017Z,97829.80
2017-08-18T19:52:17.381Z,97817.11
2017-08-18T19:54:45.790Z,97820.81
2017-08-18T19:57:14.155Z,97822.00
2017-08-18T19:59:42.547Z,97819.77
2017-08-18T20:02:10.938Z,97821.13
2017-08-18T20:04:39.316Z,97827.61
2017-08-18T20:07:07.684Z,97825.86
2017-08-18T20:09:36.087Z,97828.66
2017-08-18T20:12:04.472Z,97828.59
2017-08-18T20:14:32.838Z,97837.92
2017-08-18T20:17:01.229Z,97840.12
2017-08-18T20:19:29.625Z,97838.27
2017-08-18T20:21:58.772Z,97831.36
2017-08-18T20:24:27.196Z,97823.67
2017-08-18T20:26:55.576Z,97825.59
2017-08-18T20:29:23.955Z,97809.73
2017-08-18T20:31:52.349Z,97812.02
2017-08-18T20:34:21.488Z,97809.81
2017-08-18T20:36:49.868Z,97808.31
2017-08-18T20:39:18.282Z,97806.63
2017-08-18T20:41:46.687Z,97811.81
2017-08-18T20:44:15.057Z,97812.34
2017-08-18T20:46:43.474Z,97823.89
2017-08-18T20:49:11.850Z,97832.78
2017-08-18T20:51:40.223Z,97830.99
2017-08-18T20:54:08.620Z,97819.94
2017-08-18T20:56:36.977Z,97823.02
2017-08-18T20:59:06.110Z,97823.20
2017-08-18T21:01:34.516Z,97826.31
2017-08-18T21:04:02.905Z,97832.44
2017-08-18T21:06:31.282Z,97845.77
2017-08-18T21:08:59.702Z,97842.06
2017-08-18T21:11:28.841Z,97846.83
2017-08-18T21:13:57.225Z,97854.46
2017-08-18T21:16:25.615Z,97848.96
2017-08-18T21:18:53.993Z,97842.17
2017-08-18T21:21:22.374Z,97848.15
2017-08-18T21:23:50.795Z,97834.56
2017-08-18T21:26:19.165Z,97841.38
2017-08-18T21:28:47.541Z,97842.38
2017-08-18T21:31:15.961Z,97853.68
2017-08-18T21:33:44.343Z,97852.72
2017-08-18T21:36:12.717Z,97851.23
2017-08-18T21:38:41.872Z,97851.69
2017-08-18T21:41:11.039Z,97856.75
2017-08-18T21:43:41.036Z,97854.53
2017-08-18T21:46:09.480Z,97848.66
2017-08-18T21:48:37.859Z,97835.92
2017-08-18T21:51:06.304Z,97845.56
2017-08-18T21:53:35.429Z,97838.80
2017-08-18T21:56:03.848Z,97841.26
2017-08-18T21:58:32.254Z,97841.47
2017-08-18T22:01:00.649Z,97849.45
2017-08-18T22:03:29.022Z,97849.23
2017-08-18T22:05:57.432Z,97860.63
2017-08-18T22:08:25.833Z,97863.75
2017-08-18T22:10:54.214Z,97871.22
2017-08-18T22:13:22.587Z,97864.72
2017-08-18T22:15:50.997Z,97861.20
2017-08-18T22:18:19.441Z,97862.64
2017-08-18T22:20:47.821Z,97864.05
2017-08-18T22:23:16.236Z,97869.25
2017-08-18T22:25:44.611Z,97876.89
2017-08-18T22:28:13.031Z,97870.56
2017-08-18T22:30:41.429Z,97875.09
2017-08-18T22:33:09.786Z,97880.09
2017-08-18T22:35:38.148Z,97875.53
2017-08-18T22:38:06.548Z,97880.56
2017-08-18T22:40:34.912Z,97876.61
2017-08-18T22:43:03.284Z,97879.33
2017-08-18T22:45:31.702Z,97896.31
2017-08-18T22:48:00.085Z,97906.16
2017-08-18T22:50:28.505Z,97908.56
2017-08-18T22:52:56.882Z,97907.31
2017-08-18T22:55:25.281Z,97923.34
2017-08-18T22:57:53.646Z,97922.61
2017-08-18T23:00:22.007Z,97930.45
2017-08-18T23:02:50.415Z,97928.23
2017-08-18T23:05:18.801Z,97930.38
2017-08-18T23:07:47.183Z,97933.41
2017-08-18T23:10:15.576Z,97932.54
2017-08-18T23:12:43.940Z,97935.00
2017-08-18T23:15:12.303Z,97936.69
2017-08-18T23:17:40.725Z,97935.67
2017-08-18T23:20:09.101Z,97932.93
2017-08-18T23:22:37.473Z,97928.42
2017-08-18T23:25:05.876Z,97932.00
2017-08-18T23:27:34.244Z,97945.38
2017-08-18T23:30:02.630Z,97944.73
2017-08-18T23:32:30.993Z,97944.73
2017-08-18T23:34:59.425Z,97951.03
2017-08-18T23:37:27.822Z,97951.09
2017-08-18T23:39:56.203Z,97957.92
2017-08-18T23:42:24.596Z,97956.56
2017-08-18T23:44:53.456Z,97961.81
2017-08-18T23:47:21.851Z,97966.05
2017-08-18T23:49:50.228Z,97970.48
2017-08-18T23:52:18.600Z,97972.99
2017-08-18T23:54:47.005Z,97970.67
2017-08-18T23:57:15.382Z,97971.03
2017-08-18T23:59:43.769Z,97978.34
